Time;durP1;ratioP1;P1;durP2;ratioP2;P2;SDS_P1;SDS_P2;PMS_P1;PMS_P2;Temp;Humidity;BMP_temperature;BMP_pressure;BME280_temperature;BME280_humidity;BME280_pressure;Samples;Min_cycle;Max_cycle;Signal;HPM_P1;HPM_P2
2023/10/16 00:02:11;;;;;;;1.83;0.70;;;;;;;;;;5051162;28;20399;-74
2023/10/16 00:04:37;;;;;;;0.80;0.40;;;;;;;;;;5051499;28;20032;-75
2023/10/16 00:07:03;;;;;;;1.20;0.80;;;;;;;;;;5054781;28;20025;-74
2023/10/16 00:09:29;;;;;;;2.25;0.90;;;;;;;;;;5056660;28;20017;-76
2023/10/16 00:11:54;;;;;;;3.70;0.82;;;;;;;;;;5056330;28;20021;-74
2023/10/16 00:14:30;;;;;;;1.38;0.68;;;;;;;;;;5055879;28;20031;-75
2023/10/16 00:16:56;;;;;;;2.30;0.70;;;;;;;;;;5056038;28;20025;-74
2023/10/16 00:19:24;;;;;;;2.28;0.60;;;;;;;;;;5055730;28;20494;-74
2023/10/16 00:21:52;;;;;;;3.00;0.73;;;;;;;;;;5054501;28;20021;-74
2023/10/16 00:24:17;;;;;;;2.00;0.60;;;;;;;;;;5055662;28;20082;-76
2023/10/16 00:26:49;;;;;;;2.67;0.80;;;;;;;;;;5054435;28;20029;-74
2023/10/16 00:29:24;;;;;;;1.95;0.90;;;;;;;;;;5056026;28;20032;-74
2023/10/16 00:31:51;;;;;;;2.03;0.57;;;;;;;;;;5054409;28;20021;-74
2023/10/16 00:34:20;;;;;;;2.38;0.60;;;;;;;;;;5055524;28;20033;-74
2023/10/16 00:36:46;;;;;;;1.90;0.52;;;;;;;;;;5055607;28;20136;-74
2023/10/16 00:39:14;;;;;;;2.53;0.73;;;;;;;;;;5055578;28;20025;-74
2023/10/16 00:41:40;;;;;;;2.28;0.80;;;;;;;;;;5055467;28;20059;-74
2023/10/16 00:44:06;;;;;;;2.78;0.80;;;;;;;;;;5054061;28;20025;-74
2023/10/16 00:46:36;;;;;;;1.35;0.60;;;;;;;;;;5055452;28;20048;-76
2023/10/16 00:49:04;;;;;;;1.45;0.60;;;;;;;;;;5055685;28;20025;-74
2023/10/16 00:51:32;;;;;;;2.50;0.75;;;;;;;;;;5055307;28;20480;-74
2023/10/16 00:53:59;;;;;;;1.45;0.70;;;;;;;;;;5054084;28;20025;-75
2023/10/16 00:56:27;;;;;;;1.02;0.57;;;;;;;;;;5054117;28;20049;-75
2023/10/16 00:58:55;;;;;;;3.25;0.77;;;;;;;;;;5055144;28;20021;-75
2023/10/16 01:01:21;;;;;;;3.65;0.80;;;;;;;;;;5053970;28;20450;-75
2023/10/16 01:03:48;;;;;;;1.27;0.60;;;;;;;;;;5055150;28;20096;-75
2023/10/16 01:06:19;;;;;;;1.27;0.57;;;;;;;;;;5055012;28;20027;-75
2023/10/16 01:08:51;;;;;;;3.58;0.80;;;;;;;;;;5055301;28;20439;-75
2023/10/16 01:11:19;;;;;;;1.63;0.70;;;;;;;;;;5055086;28;20029;-75
2023/10/16 01:13:47;;;;;;;0.95;0.50;;;;;;;;;;5054847;28;20095;-75
2023/10/16 01:16:12;;;;;;;2.08;0.70;;;;;;;;;;5054118;28;20028;-75
2023/10/16 01:18:38;;;;;;;0.80;0.52;;;;;;;;;;5054624;28;20037;-75
2023/10/16 01:21:05;;;;;;;5.60;0.80;;;;;;;;;;5053335;28;20017;-75
2023/10/16 01:23:34;;;;;;;0.95;0.63;;;;;;;;;;5054760;28;20487;-74
2023/10/16 01:26:00;;;;;;;3.40;0.85;;;;;;;;;;5054906;28;20392;-75
2023/10/16 01:28:27;;;;;;;0.73;0.57;;;;;;;;;;5054626;28;20102;-74
2023/10/16 01:30:53;;;;;;;2.05;0.90;;;;;;;;;;5055331;28;20349;-75
2023/10/16 01:33:19;;;;;;;1.08;0.70;;;;;;;;;;5053106;28;20021;-75
2023/10/16 01:35:45;;;;;;;1.80;0.70;;;;;;;;;;5054367;28;20365;-74
2023/10/16 01:38:15;;;;;;;1.75;0.80;;;;;;;;;;5054940;28;20035;-75
2023/10/16 01:40:47;;;;;;;5.05;0.90;;;;;;;;;;5054356;28;20096;-75
2023/10/16 01:43:16;;;;;;;2.17;0.80;;;;;;;;;;5053039;28;20032;-74
2023/10/16 01:45:49;;;;;;;1.15;0.77;;;;;;;;;;5053013;28;20028;-75
2023/10/16 01:48:19;;;;;;;1.83;0.77;;;;;;;;;;5052969;28;20047;-75
2023/10/16 01:50:47;;;;;;;3.42;0.70;;;;;;;;;;5054348;28;20021;-75
2023/10/16 01:53:15;;;;;;;3.28;0.90;;;;;;;;;;5052948;28;20036;-74
2023/10/16 01:55:42;;;;;;;2.22;0.95;;;;;;;;;;5054774;28;20025;-75
2023/10/16 01:58:09;;;;;;;2.88;0.52;;;;;;;;;;5052962;28;20130;-75
2023/10/16 02:00:34;;;;;;;3.13;0.82;;;;;;;;;;5052792;28;20032;-74
2023/10/16 02:03:01;;;;;;;0.80;0.50;;;;;;;;;;5052764;28;20020;-74
2023/10/16 02:05:27;;;;;;;0.98;0.60;;;;;;;;;;5054102;28;20024;-74
2023/10/16 02:07:56;;;;;;;2.97;0.70;;;;;;;;;;5053963;28;20028;-74
2023/10/16 02:10:21;;;;;;;1.35;0.70;;;;;;;;;;5054073;28;20067;-75
2023/10/16 02:12:48;;;;;;;2.45;0.60;;;;;;;;;;5052606;28;20495;-74
2023/10/16 02:15:15;;;;;;;2.88;0.70;;;;;;;;;;5052536;28;20027;-74
2023/10/16 02:17:42;;;;;;;2.67;0.70;;;;;;;;;;5052519;28;20025;-75
2023/10/16 02:20:15;;;;;;;2.72;1.02;;;;;;;;;;5053679;28;20480;-76
2023/10/16 02:22:40;;;;;;;2.78;0.73;;;;;;;;;;5053713;28;20499;-74
2023/10/16 02:25:11;;;;;;;1.23;0.80;;;;;;;;;;5053604;28;20021;-75
2023/10/16 02:27:36;;;;;;;1.60;0.75;;;;;;;;;;5054154;28;20059;-74
2023/10/16 02:30:15;;;;;;;1.38;0.70;;;;;;;;;;5053712;28;20052;-74
2023/10/16 02:32:42;;;;;;;3.15;0.80;;;;;;;;;;5052135;28;20025;-74
2023/10/16 02:35:13;;;;;;;4.47;0.85;;;;;;;;;;5052130;28;20017;-74
2023/10/16 02:37:39;;;;;;;1.63;0.90;;;;;;;;;;5053321;28;20033;-74
2023/10/16 02:40:09;;;;;;;3.25;1.00;;;;;;;;;;5053233;28;20369;-74
2023/10/16 02:42:35;;;;;;;1.90;0.70;;;;;;;;;;5051927;28;20404;-74
2023/10/16 02:45:00;;;;;;;2.53;0.80;;;;;;;;;;5053213;28;20027;-75
2023/10/16 02:47:25;;;;;;;2.42;0.50;;;;;;;;;;5053114;28;20515;-74
2023/10/16 02:49:51;;;;;;;2.75;0.90;;;;;;;;;;5053071;28;20024;-75
2023/10/16 02:52:17;;;;;;;2.65;0.90;;;;;;;;;;5051950;28;20021;-74
2023/10/16 02:54:45;;;;;;;2.97;0.90;;;;;;;;;;5053129;28;20044;-74
2023/10/16 02:57:11;;;;;;;1.50;0.77;;;;;;;;;;5052893;28;20035;-74
2023/10/16 02:59:39;;;;;;;2.42;0.70;;;;;;;;;;5053019;28;20033;-74
2023/10/16 03:02:14;;;;;;;0.68;0.50;;;;;;;;;;5053544;28;20039;-74
2023/10/16 03:04:43;;;;;;;1.95;0.70;;;;;;;;;;5052968;28;20039;-74
2023/10/16 03:07:09;;;;;;;2.92;1.00;;;;;;;;;;5052971;28;20029;-74
2023/10/16 03:09:35;;;;;;;3.25;0.95;;;;;;;;;;5052891;28;20024;-74
2023/10/16 03:12:10;;;;;;;5.57;0.85;;;;;;;;;;5051640;28;20075;-74
2023/10/16 03:14:45;;;;;;;7.95;1.27;;;;;;;;;;5052779;28;20021;-74
2023/10/16 03:17:34;;;;;;;4.32;0.90;;;;;;;;;;5052939;28;20029;-74
2023/10/16 03:20:00;;;;;;;1.33;0.60;;;;;;;;;;5052962;28;20033;-74
2023/10/16 03:22:25;;;;;;;2.03;0.70;;;;;;;;;;5052772;28;20016;-74
2023/10/16 03:24:52;;;;;;;2.05;0.50;;;;;;;;;;5052694;28;20132;-74
2023/10/16 03:27:29;;;;;;;4.60;0.70;;;;;;;;;;5052742;28;20067;-74
2023/10/16 03:29:55;;;;;;;3.95;0.73;;;;;;;;;;5053097;28;20029;-74
2023/10/16 03:32:23;;;;;;;4.65;0.90;;;;;;;;;;5052781;28;20029;-74
2023/10/16 03:34:49;;;;;;;2.03;0.70;;;;;;;;;;5052563;28;20032;-74
2023/10/16 03:37:15;;;;;;;3.13;1.65;;;;;;;;;;5052967;28;20032;-74
2023/10/16 03:39:41;;;;;;;4.03;0.77;;;;;;;;;;5051877;28;20033;-74
2023/10/16 03:42:09;;;;;;;4.07;0.70;;;;;;;;;;5055500;28;20021;-74
2023/10/16 03:44:41;;;;;;;4.05;1.27;;;;;;;;;;5056478;28;20025;-74
2023/10/16 03:47:07;;;;;;;2.97;1.10;;;;;;;;;;5057419;28;20498;-74
2023/10/16 03:49:32;;;;;;;4.20;0.88;;;;;;;;;;5056389;28;20052;-74
2023/10/16 03:51:57;;;;;;;4.13;0.98;;;;;;;;;;5056513;28;20024;-74
2023/10/16 03:54:31;;;;;;;5.15;1.00;;;;;;;;;;5056351;28;20017;-74
2023/10/16 03:56:59;;;;;;;3.35;0.85;;;;;;;;;;5056737;28;20027;-74
2023/10/16 03:59:28;;;;;;;3.08;0.80;;;;;;;;;;5056236;28;20036;-74
2023/10/16 04:01:54;;;;;;;2.35;0.98;;;;;;;;;;5056162;28;20024;-75
2023/10/16 04:04:20;;;;;;;2.53;0.73;;;;;;;;;;5056697;28;20097;-74
2023/10/16 04:06:48;;;;;;;3.78;0.73;;;;;;;;;;5054897;28;20052;-74
2023/10/16 04:09:14;;;;;;;3.13;1.27;;;;;;;;;;5056125;28;20045;-75
2023/10/16 04:11:47;;;;;;;3.15;1.10;;;;;;;;;;5055071;28;20024;-74
2023/10/16 04:14:14;;;;;;;4.50;1.20;;;;;;;;;;5056316;28;20024;-74
2023/10/16 04:16:43;;;;;;;4.97;0.77;;;;;;;;;;5055995;28;20483;-74
2023/10/16 04:21:45;;;;;;;4.13;0.98;;;;;;;;;;5057417;28;20049;-74
2023/10/16 04:29:25;;;;;;;9.38;1.20;;;;;;;;;;5055676;28;20100;-74
2023/10/16 04:32:06;;;;;;;2.83;0.90;;;;;;;;;;5055951;28;20020;-74
2023/10/16 04:47:47;;;;;;;4.65;0.82;;;;;;;;;;5055943;28;20060;-74
2023/10/16 04:50:14;;;;;;;1.65;0.60;;;;;;;;;;5055675;28;20024;-74
2023/10/16 05:00:57;;;;;;;0.90;0.75;;;;;;;;;;5055246;28;20029;-76
2023/10/16 05:03:44;;;;;;;2.97;0.80;;;;;;;;;;5052575;28;20060;-76
2023/10/16 05:08:59;;;;;;;2.33;0.80;;;;;;;;;;5055069;28;20047;-76
2023/10/16 06:16:17;;;;;;;5.60;1.05;;;;;;;;;;5057596;28;20122;-78
2023/10/16 06:18:45;;;;;;;4.93;1.30;;;;;;;;;;5054022;28;20515;-76
2023/10/16 06:21:14;;;;;;;3.83;0.98;;;;;;;;;;5053601;28;20029;-79
2023/10/16 06:23:42;;;;;;;2.88;0.88;;;;;;;;;;5051713;28;20107;-75
2023/10/16 06:26:10;;;;;;;3.13;1.00;;;;;;;;;;5054811;28;20027;-75
2023/10/16 06:28:47;;;;;;;2.00;0.88;;;;;;;;;;5053590;28;20054;-76
2023/10/16 06:31:13;;;;;;;1.85;0.90;;;;;;;;;;5052249;28;20025;-77
2023/10/16 06:33:40;;;;;;;2.50;0.90;;;;;;;;;;5053264;28;20032;-76
2023/10/16 06:36:06;;;;;;;4.00;1.10;;;;;;;;;;5052893;28;20496;-75
2023/10/16 06:38:31;;;;;;;3.92;1.20;;;;;;;;;;5053634;28;20060;-76
2023/10/16 06:40:57;;;;;;;1.70;1.02;;;;;;;;;;5053147;28;20021;-75
2023/10/16 06:43:26;;;;;;;2.78;1.08;;;;;;;;;;5053167;28;20049;-75
2023/10/16 06:45:58;;;;;;;3.95;1.63;;;;;;;;;;5053642;28;20086;-75
2023/10/16 06:48:27;;;;;;;1.95;0.73;;;;;;;;;;5054008;28;20021;-75
2023/10/16 06:50:53;;;;;;;2.90;1.00;;;;;;;;;;5053137;28;20117;-76
2023/10/16 06:53:25;;;;;;;4.45;1.00;;;;;;;;;;5052940;28;20040;-76
2023/10/16 06:55:53;;;;;;;2.80;1.00;;;;;;;;;;5053347;28;20099;-76
2023/10/16 06:58:21;;;;;;;4.82;1.00;;;;;;;;;;5053023;28;20035;-76
2023/10/16 07:00:52;;;;;;;4.75;1.10;;;;;;;;;;5052791;28;20059;-76
2023/10/16 07:03:17;;;;;;;5.57;1.20;;;;;;;;;;5053011;28;20025;-76
2023/10/16 07:05:42;;;;;;;3.80;1.00;;;;;;;;;;5052761;28;20534;-76
2023/10/16 07:08:18;;;;;;;2.28;0.90;;;;;;;;;;5052787;28;20024;-75
2023/10/16 07:10:48;;;;;;;3.88;0.90;;;;;;;;;;5051535;28;20024;-76
2023/10/16 07:13:15;;;;;;;4.45;1.00;;;;;;;;;;5051426;28;20024;-76
2023/10/16 07:15:40;;;;;;;5.95;1.52;;;;;;;;;;5052103;28;20053;-76
2023/10/16 07:18:05;;;;;;;9.15;1.63;;;;;;;;;;5052791;28;20056;-76
2023/10/16 07:20:34;;;;;;;5.18;1.13;;;;;;;;;;5053211;28;20025;-76
2023/10/16 07:22:59;;;;;;;1.63;0.80;;;;;;;;;;5052609;28;20057;-76
2023/10/16 07:25:37;;;;;;;3.78;1.02;;;;;;;;;;5052811;28;20033;-76
2023/10/16 07:28:10;;;;;;;2.55;1.13;;;;;;;;;;5051344;28;20021;-76
2023/10/16 07:30:36;;;;;;;1.42;0.88;;;;;;;;;;5052839;28;20360;-76
2023/10/16 07:33:02;;;;;;;4.03;1.13;;;;;;;;;;5052825;28;20021;-76
2023/10/16 07:35:28;;;;;;;2.50;0.80;;;;;;;;;;5051643;28;20032;-76
2023/10/16 07:37:58;;;;;;;3.60;1.08;;;;;;;;;;5051322;28;20060;-76
2023/10/16 07:40:25;;;;;;;3.42;1.30;;;;;;;;;;5052766;28;20021;-76
2023/10/16 07:42:53;;;;;;;4.63;1.00;;;;;;;;;;5052442;28;20021;-76
2023/10/16 07:45:19;;;;;;;2.70;1.10;;;;;;;;;;5051224;28;20132;-76
2023/10/16 07:47:48;;;;;;;3.33;1.13;;;;;;;;;;5052369;28;20540;-76
2023/10/16 07:50:16;;;;;;;5.75;1.33;;;;;;;;;;5051679;28;20044;-76
2023/10/16 07:52:43;;;;;;;3.22;1.10;;;;;;;;;;5052086;28;20032;-76
2023/10/16 07:55:18;;;;;;;4.40;1.10;;;;;;;;;;5051139;28;20086;-76
2023/10/16 07:57:44;;;;;;;5.68;1.27;;;;;;;;;;5051493;28;20419;-76
2023/10/16 08:00:14;;;;;;;3.53;1.00;;;;;;;;;;5052577;28;20112;-76
2023/10/16 08:02:44;;;;;;;6.00;1.25;;;;;;;;;;5052884;28;20024;-76
2023/10/16 08:05:16;;;;;;;4.05;1.10;;;;;;;;;;5052365;28;20021;-76
2023/10/16 08:07:48;;;;;;;10.35;1.42;;;;;;;;;;5053029;28;20353;-76
2023/10/16 08:13:11;;;;;;;6.70;1.13;;;;;;;;;;5052495;28;20431;-76
2023/10/16 08:15:37;;;;;;;3.80;1.20;;;;;;;;;;5052737;28;20025;-75
2023/10/16 08:18:07;;;;;;;4.82;0.85;;;;;;;;;;5052568;28;20070;-76
2023/10/16 08:20:49;;;;;;;1.63;0.82;;;;;;;;;;5051856;28;20108;-75
2023/10/16 08:23:14;;;;;;;3.53;1.00;;;;;;;;;;5050667;28;20024;-76
2023/10/16 08:25:40;;;;;;;2.25;0.80;;;;;;;;;;5052493;28;20396;-76
2023/10/16 08:28:20;;;;;;;5.05;1.02;;;;;;;;;;5055761;28;20025;-76
2023/10/16 08:33:16;;;;;;;11.60;1.55;;;;;;;;;;5055839;28;20059;-75
2023/10/16 08:35:42;;;;;;;4.00;1.10;;;;;;;;;;5055610;28;20032;-75
2023/10/16 08:38:15;;;;;;;2.88;0.90;;;;;;;;;;5054326;28;20400;-75
2023/10/16 08:40:45;;;;;;;2.25;1.05;;;;;;;;;;5054304;28;20021;-75
2023/10/16 08:43:16;;;;;;;3.55;1.30;;;;;;;;;;5054272;28;20036;-75
2023/10/16 08:45:49;;;;;;;2.17;1.00;;;;;;;;;;5055928;28;20025;-75
2023/10/16 08:48:17;;;;;;;4.38;1.25;;;;;;;;;;5055452;28;20032;-76
2023/10/16 08:50:52;;;;;;;4.68;1.15;;;;;;;;;;5053896;28;20476;-76
2023/10/16 08:53:30;;;;;;;5.70;1.20;;;;;;;;;;5053877;28;20120;-76
2023/10/16 08:55:58;;;;;;;4.30;0.95;;;;;;;;;;5054339;28;20488;-76
2023/10/16 08:58:23;;;;;;;4.32;1.58;;;;;;;;;;5055221;28;20021;-76
2023/10/16 09:00:51;;;;;;;3.65;1.20;;;;;;;;;;5055211;28;20071;-75
2023/10/16 09:03:19;;;;;;;6.22;1.20;;;;;;;;;;5053695;28;20035;-76
2023/10/16 09:05:44;;;;;;;2.35;0.80;;;;;;;;;;5053881;28;20060;-76
2023/10/16 09:08:14;;;;;;;5.93;1.17;;;;;;;;;;5055313;28;20068;-76
2023/10/16 09:10:41;;;;;;;3.13;1.20;;;;;;;;;;5053804;28;20082;-76
2023/10/16 09:13:16;;;;;;;2.00;1.10;;;;;;;;;;5054981;28;20077;-76
2023/10/16 09:15:47;;;;;;;3.25;0.95;;;;;;;;;;5054880;28;20029;-76
2023/10/16 09:18:15;;;;;;;3.80;1.02;;;;;;;;;;5054783;28;20028;-76
2023/10/16 09:20:42;;;;;;;4.10;1.00;;;;;;;;;;5055149;28;20044;-76
2023/10/16 09:23:13;;;;;;;3.00;1.00;;;;;;;;;;5054954;28;20047;-76
2023/10/16 09:25:43;;;;;;;2.15;0.73;;;;;;;;;;5055097;28;20395;-76
2023/10/16 09:28:12;;;;;;;4.50;0.80;;;;;;;;;;5053407;28;20136;-76
2023/10/16 09:30:42;;;;;;;3.00;0.98;;;;;;;;;;5053366;28;20033;-75
2023/10/16 09:33:10;;;;;;;8.18;0.85;;;;;;;;;;5054469;28;20024;-76
2023/10/16 09:35:43;;;;;;;1.63;0.73;;;;;;;;;;5054149;28;20021;-74
2023/10/16 09:38:19;;;;;;;4.18;1.00;;;;;;;;;;5053913;28;20032;-75
2023/10/16 09:41:19;;;;;;;4.90;1.20;;;;;;;;;;5053029;28;20031;-75
2023/10/16 09:43:45;;;;;;;3.90;0.90;;;;;;;;;;5053923;28;20031;-75
2023/10/16 09:48:56;;;;;;;6.78;0.82;;;;;;;;;;5054133;28;20067;-76
2023/10/16 09:51:21;;;;;;;2.58;0.90;;;;;;;;;;5054745;28;20028;-76
2023/10/16 09:53:47;;;;;;;3.10;0.90;;;;;;;;;;5054077;28;20028;-76
2023/10/16 09:56:15;;;;;;;3.25;0.93;;;;;;;;;;5052844;28;20029;-76
2023/10/16 09:58:44;;;;;;;3.47;0.70;;;;;;;;;;5054287;28;20484;-76
2023/10/16 10:01:10;;;;;;;3.33;1.15;;;;;;;;;;5054080;28;20032;-76
2023/10/16 10:03:36;;;;;;;1.88;1.00;;;;;;;;;;5054210;28;20387;-76
2023/10/16 10:06:12;;;;;;;4.03;1.10;;;;;;;;;;5052594;28;20024;-76
2023/10/16 10:09:44;;;;;;;4.03;1.13;;;;;;;;;;5052505;28;20025;-76
2023/10/16 10:11:57;;;;;;;3.20;1.00;;;;;;;;;;5052935;28;20466;-76
2023/10/16 10:14:39;;;;;;;3.17;0.88;;;;;;;;;;5052478;28;20025;-76
2023/10/16 10:17:09;;;;;;;4.80;0.93;;;;;;;;;;5053811;28;20400;-75
2023/10/16 10:19:39;;;;;;;3.28;1.10;;;;;;;;;;5053504;28;20021;-76
2023/10/16 10:22:17;;;;;;;8.05;1.02;;;;;;;;;;5053514;28;20082;-75
2023/10/16 10:25:07;;;;;;;2.60;0.93;;;;;;;;;;5052145;28;20480;-75
2023/10/16 10:27:32;;;;;;;1.85;0.90;;;;;;;;;;5052756;28;20028;-75
2023/10/16 10:30:02;;;;;;;2.70;0.85;;;;;;;;;;5053429;28;20038;-75
2023/10/16 10:32:28;;;;;;;3.97;1.00;;;;;;;;;;5053631;28;20082;-74
2023/10/16 10:35:21;;;;;;;4.53;1.00;;;;;;;;;;5052672;28;20045;-76
2023/10/16 10:37:47;;;;;;;4.72;1.10;;;;;;;;;;5051899;28;20033;-75
2023/10/16 10:40:22;;;;;;;3.17;0.93;;;;;;;;;;5053148;28;20029;-75
2023/10/16 10:42:56;;;;;;;2.80;0.80;;;;;;;;;;5053468;28;20055;-74
2023/10/16 10:45:35;;;;;;;1.48;0.90;;;;;;;;;;5053165;28;20029;-75
2023/10/16 10:48:09;;;;;;;3.40;0.82;;;;;;;;;;5052037;28;20086;-75
2023/10/16 10:50:38;;;;;;;;;;;;;;;;;;5052288;28;20020;-75
2023/10/16 10:53:13;;;;;;;2.65;0.95;;;;;;;;;;5052786;28;19908;-76
2023/10/16 10:55:51;;;;;;;2.47;0.88;;;;;;;;;;5053316;28;20028;-74
2023/10/16 10:58:20;;;;;;;3.58;0.90;;;;;;;;;;5053126;28;20479;-76
2023/10/16 11:00:50;;;;;;;6.75;1.20;;;;;;;;;;5051627;28;20040;-75
2023/10/16 11:03:41;;;;;;;5.55;1.02;;;;;;;;;;5052862;28;20024;-76
2023/10/16 11:06:00;;;;;;;2.72;1.10;;;;;;;;;;5052880;28;20422;-76
2023/10/16 11:08:31;;;;;;;3.67;1.17;;;;;;;;;;5052863;28;20102;-76
2023/10/16 11:10:56;;;;;;;3.53;0.90;;;;;;;;;;5053411;28;20067;-77
2023/10/16 11:13:22;;;;;;;1.13;0.80;;;;;;;;;;5052707;28;20029;-76
2023/10/16 11:15:52;;;;;;;2.55;1.00;;;;;;;;;;5051499;28;20056;-75
2023/10/16 11:18:19;;;;;;;4.53;1.00;;;;;;;;;;5052811;28;20095;-78
2023/10/16 11:20:52;;;;;;;4.13;0.90;;;;;;;;;;5053040;28;20033;-76
2023/10/16 11:23:18;;;;;;;2.43;0.90;;;;;;;;;;5052865;28;20025;-77
2023/10/16 11:25:46;;;;;;;1.23;0.70;;;;;;;;;;5053693;28;20501;-78
2023/10/16 11:28:17;;;;;;;4.50;1.17;;;;;;;;;;5051539;28;20024;-77
2023/10/16 11:30:44;;;;;;;2.05;0.90;;;;;;;;;;5052674;28;20032;-76
2023/10/16 11:33:10;;;;;;;2.40;1.20;;;;;;;;;;5052638;28;20057;-76
2023/10/16 11:35:35;;;;;;;4.40;1.10;;;;;;;;;;5052848;28;20052;-77
2023/10/16 11:38:19;;;;;;;6.13;0.93;;;;;;;;;;5052793;28;20490;-77
2023/10/16 11:40:47;;;;;;;2.75;0.90;;;;;;;;;;5052380;28;20115;-77
2023/10/16 11:43:13;;;;;;;3.20;0.90;;;;;;;;;;5051210;28;20061;-77
2023/10/16 11:45:53;;;;;;;2.58;0.90;;;;;;;;;;5051502;28;20514;-77
2023/10/16 11:51:09;;;;;;;2.83;1.10;;;;;;;;;;5055279;28;20020;-77
2023/10/16 11:53:36;;;;;;;3.25;1.10;;;;;;;;;;5053323;28;20392;-76
2023/10/16 11:56:02;;;;;;;2.20;0.90;;;;;;;;;;5050979;28;20032;-76
2023/10/16 11:58:31;;;;;;;3.38;0.98;;;;;;;;;;5052022;28;20152;-76
2023/10/16 12:01:09;;;;;;;3.78;0.80;;;;;;;;;;5053427;28;20388;-76
2023/10/16 12:03:38;;;;;;;3.67;1.10;;;;;;;;;;5054765;28;20025;-76
2023/10/16 12:06:13;;;;;;;5.18;1.20;;;;;;;;;;5055099;28;20029;-76
2023/10/16 12:08:41;;;;;;;2.13;1.05;;;;;;;;;;5054570;28;20032;-76
2023/10/16 12:11:07;;;;;;;3.85;1.17;;;;;;;;;;5055993;28;20021;-76
2023/10/16 12:13:33;;;;;;;3.60;1.27;;;;;;;;;;5055932;28;20025;-76
2023/10/16 12:15:58;;;;;;;2.13;1.10;;;;;;;;;;5055830;28;20036;-76
2023/10/16 12:18:26;;;;;;;4.78;1.38;;;;;;;;;;5055926;28;20064;-76
2023/10/16 12:20:53;;;;;;;4.22;1.30;;;;;;;;;;5054319;28;20033;-76
2023/10/16 12:23:20;;;;;;;5.60;1.33;;;;;;;;;;5054292;28;20029;-76
2023/10/16 12:25:46;;;;;;;4.50;1.38;;;;;;;;;;5055673;28;20036;-76
2023/10/16 12:28:12;;;;;;;4.40;1.30;;;;;;;;;;5055734;28;20021;-76
2023/10/16 12:30:37;;;;;;;4.88;1.10;;;;;;;;;;5055686;28;20035;-76
2023/10/16 12:33:06;;;;;;;5.63;1.30;;;;;;;;;;5055825;28;20017;-76
2023/10/16 12:35:31;;;;;;;4.47;1.20;;;;;;;;;;5055604;28;20021;-76
2023/10/16 12:37:56;;;;;;;4.30;1.20;;;;;;;;;;5055657;28;20488;-76
2023/10/16 12:40:27;;;;;;;5.03;1.00;;;;;;;;;;5054135;28;20032;-76
2023/10/16 12:42:55;;;;;;;2.47;1.10;;;;;;;;;;5055583;28;20039;-77
2023/10/16 12:45:22;;;;;;;3.63;1.27;;;;;;;;;;5055377;28;20034;-77
2023/10/16 12:47:51;;;;;;;3.05;0.93;;;;;;;;;;5055346;28;20034;-77
2023/10/16 12:50:17;;;;;;;2.25;1.02;;;;;;;;;;5054071;28;20021;-74
2023/10/16 12:52:44;;;;;;;6.07;1.25;;;;;;;;;;5055406;28;20164;-74
2023/10/16 12:55:09;;;;;;;4.15;1.25;;;;;;;;;;5055594;28;20033;-75
2023/10/16 12:57:34;;;;;;;1.58;1.10;;;;;;;;;;5055173;28;20051;-75
2023/10/16 13:00:00;;;;;;;4.47;1.10;;;;;;;;;;5055265;28;20031;-74
2023/10/16 13:02:28;;;;;;;4.68;1.20;;;;;;;;;;5054951;28;20112;-75
2023/10/16 13:04:55;;;;;;;3.97;1.02;;;;;;;;;;5052777;28;20021;-75
2023/10/16 13:07:22;;;;;;;4.15;1.10;;;;;;;;;;5054776;28;20100;-75
2023/10/16 13:09:47;;;;;;;2.88;1.30;;;;;;;;;;5053343;28;20056;-75
2023/10/16 13:12:13;;;;;;;1.83;1.10;;;;;;;;;;5053378;28;20056;-74
2023/10/16 13:14:39;;;;;;;1.77;0.88;;;;;;;;;;5054525;28;20434;-75
2023/10/16 13:17:08;;;;;;;3.58;1.00;;;;;;;;;;5054610;28;20029;-75
2023/10/16 13:19:34;;;;;;;1.52;0.70;;;;;;;;;;5053225;28;20116;-74
2023/10/16 13:22:07;;;;;;;2.45;1.00;;;;;;;;;;5053207;28;20468;-74
2023/10/16 13:24:34;;;;;;;0.95;0.70;;;;;;;;;;5052974;28;20550;-75
2023/10/16 13:26:59;;;;;;;1.80;0.95;;;;;;;;;;5054325;28;20029;-75
2023/10/16 13:29:25;;;;;;;1.60;0.90;;;;;;;;;;5054536;28;20040;-75
2023/10/16 13:31:53;;;;;;;3.03;0.80;;;;;;;;;;5054585;28;20028;-75
2023/10/16 13:34:19;;;;;;;1.83;0.90;;;;;;;;;;5054405;28;20139;-75
2023/10/16 13:37:08;;;;;;;3.10;1.00;;;;;;;;;;5053930;28;20133;-76
2023/10/16 13:39:38;;;;;;;1.88;0.90;;;;;;;;;;5058695;28;20028;-75
2023/10/16 13:42:08;;;;;;;2.53;1.10;;;;;;;;;;5059640;28;20115;-75
2023/10/16 13:44:36;;;;;;;5.13;1.08;;;;;;;;;;5053929;28;20028;-75
2023/10/16 13:47:05;;;;;;;5.25;1.30;;;;;;;;;;5053069;28;20395;-75
2023/10/16 13:49:31;;;;;;;4.88;1.63;;;;;;;;;;5053935;28;20032;-75
2023/10/16 13:51:58;;;;;;;4.53;1.00;;;;;;;;;;5052993;28;20025;-74
2023/10/16 13:54:23;;;;;;;2.20;1.08;;;;;;;;;;5054016;28;20028;-76
2023/10/16 13:56:49;;;;;;;3.17;1.00;;;;;;;;;;5054613;28;20029;-74
2023/10/16 13:59:18;;;;;;;3.95;1.10;;;;;;;;;;5053786;28;20499;-76
2023/10/16 14:01:43;;;;;;;1.45;0.88;;;;;;;;;;5052343;28;20021;-75
2023/10/16 14:04:21;;;;;;;4.47;1.13;;;;;;;;;;5053547;28;20044;-74
2023/10/16 14:06:53;;;;;;;2.63;1.00;;;;;;;;;;5053810;28;20109;-75
2023/10/16 14:09:28;;;;;;;2.33;1.00;;;;;;;;;;5053644;28;20025;-75
2023/10/16 14:11:58;;;;;;;2.85;1.00;;;;;;;;;;5053605;28;20105;-75
2023/10/16 14:14:25;;;;;;;3.30;0.80;;;;;;;;;;5052072;28;20068;-75
2023/10/16 14:16:52;;;;;;;3.60;1.02;;;;;;;;;;5052115;28;20033;-75
2023/10/16 14:19:28;;;;;;;1.50;0.95;;;;;;;;;;5053472;28;20063;-76
2023/10/16 14:21:57;;;;;;;1.73;1.10;;;;;;;;;;5052112;28;20032;-76
2023/10/16 14:24:24;;;;;;;2.38;1.00;;;;;;;;;;5052892;28;20025;-75
2023/10/16 14:26:58;;;;;;;1.05;0.90;;;;;;;;;;5053219;28;20431;-76
2023/10/16 14:29:24;;;;;;;3.47;1.13;;;;;;;;;;5052027;28;20056;-76
2023/10/16 14:31:51;;;;;;;3.45;1.10;;;;;;;;;;5053298;28;20059;-75
2023/10/16 14:34:22;;;;;;;2.35;1.02;;;;;;;;;;5053832;28;20035;-75
2023/10/16 14:36:48;;;;;;;5.30;1.20;;;;;;;;;;5053346;28;20025;-77
2023/10/16 14:39:14;;;;;;;1.85;1.00;;;;;;;;;;5053013;28;20090;-75
2023/10/16 14:41:41;;;;;;;2.90;1.00;;;;;;;;;;5053184;28;20025;-76
2023/10/16 14:44:08;;;;;;;4.70;1.17;;;;;;;;;;5052219;28;20017;-76
2023/10/16 14:46:36;;;;;;;3.60;1.10;;;;;;;;;;5050144;28;20537;-76
2023/10/16 14:49:01;;;;;;;4.57;1.10;;;;;;;;;;5052002;28;20062;-76
2023/10/16 14:51:27;;;;;;;1.98;1.13;;;;;;;;;;5052938;28;20033;-76
2023/10/16 14:53:55;;;;;;;2.53;1.10;;;;;;;;;;5052695;28;20094;-76
2023/10/16 14:56:20;;;;;;;4.15;1.10;;;;;;;;;;5051577;28;20028;-74
2023/10/16 14:58:47;;;;;;;3.78;1.15;;;;;;;;;;5052808;28;20023;-76
2023/10/16 15:01:16;;;;;;;1.95;0.90;;;;;;;;;;5052611;28;20032;-75
2023/10/16 15:03:47;;;;;;;2.88;1.15;;;;;;;;;;5052617;28;20024;-75
2023/10/16 15:06:14;;;;;;;2.50;1.10;;;;;;;;;;5051819;28;20123;-75
2023/10/16 15:08:43;;;;;;;1.40;1.02;;;;;;;;;;5053354;28;20057;-75
2023/10/16 15:11:10;;;;;;;2.50;1.20;;;;;;;;;;5052741;28;20100;-74
2023/10/16 15:13:45;;;;;;;2.10;1.40;;;;;;;;;;5052447;28;20400;-75
2023/10/16 15:16:10;;;;;;;2.83;1.42;;;;;;;;;;5052868;28;20025;-75
2023/10/16 15:18:39;;;;;;;2.85;1.65;;;;;;;;;;5052727;28;20426;-75
2023/10/16 15:21:08;;;;;;;5.35;1.92;;;;;;;;;;5051261;28;20028;-76
2023/10/16 15:23:34;;;;;;;5.40;1.90;;;;;;;;;;5052059;28;20028;-75
2023/10/16 15:26:00;;;;;;;1.80;1.23;;;;;;;;;;5052637;28;20044;-77
2023/10/16 15:28:28;;;;;;;2.95;1.20;;;;;;;;;;5050231;28;20154;-76
2023/10/16 15:30:54;;;;;;;2.38;1.30;;;;;;;;;;5052311;28;20021;-76
2023/10/16 15:33:24;;;;;;;2.63;1.55;;;;;;;;;;5052198;28;20025;-76
2023/10/16 15:35:51;;;;;;;4.40;1.60;;;;;;;;;;5053002;28;20112;-76
2023/10/16 15:38:23;;;;;;;4.13;1.25;;;;;;;;;;5056711;28;20029;-75
2023/10/16 15:40:52;;;;;;;3.58;1.50;;;;;;;;;;5056753;28;20036;-76
2023/10/16 15:43:18;;;;;;;1.30;1.20;;;;;;;;;;5056274;28;20024;-76
2023/10/16 15:45:44;;;;;;;3.53;1.65;;;;;;;;;;5056641;28;20075;-75
2023/10/16 15:48:12;;;;;;;3.70;1.45;;;;;;;;;;5056425;28;20059;-75
2023/10/16 15:50:37;;;;;;;2.67;1.40;;;;;;;;;;5056582;28;20016;-75
2023/10/16 15:53:04;;;;;;;2.17;1.38;;;;;;;;;;5054752;28;20025;-75
2023/10/16 15:55:30;;;;;;;3.25;1.70;;;;;;;;;;5054897;28;20116;-75
2023/10/16 15:57:56;;;;;;;2.58;1.60;;;;;;;;;;5056095;28;20107;-75
2023/10/16 16:00:26;;;;;;;5.38;1.50;;;;;;;;;;5055920;28;20484;-75
2023/10/16 16:02:52;;;;;;;1.70;1.48;;;;;;;;;;5055567;28;20021;-75
2023/10/16 16:05:18;;;;;;;2.63;1.38;;;;;;;;;;5056035;28;20107;-74
2023/10/16 16:07:43;;;;;;;5.45;1.90;;;;;;;;;;5055868;28;20057;-74
2023/10/16 16:10:10;;;;;;;3.58;1.70;;;;;;;;;;5055834;28;20051;-74
2023/10/16 16:12:39;;;;;;;3.10;1.77;;;;;;;;;;5054360;28;20035;-74
2023/10/16 16:15:05;;;;;;;5.00;2.45;;;;;;;;;;5055391;28;20395;-75
2023/10/16 16:17:31;;;;;;;7.82;2.72;;;;;;;;;;5053129;28;20043;-75
2023/10/16 16:19:56;;;;;;;6.38;3.80;;;;;;;;;;5055996;28;20476;-74
2023/10/16 16:22:22;;;;;;;7.07;3.75;;;;;;;;;;5055925;28;20028;-74
2023/10/16 16:24:47;;;;;;;11.32;4.38;;;;;;;;;;5055638;28;20029;-75
2023/10/16 16:27:13;;;;;;;10.63;4.70;;;;;;;;;;5054373;28;20017;-74
2023/10/16 16:29:38;;;;;;;8.98;3.90;;;;;;;;;;5055675;28;20052;-75
2023/10/16 16:32:04;;;;;;;8.07;4.50;;;;;;;;;;5054868;28;20487;-74
2023/10/16 16:34:31;;;;;;;13.52;6.25;;;;;;;;;;5055352;28;20033;-75
2023/10/16 16:36:57;;;;;;;8.23;4.20;;;;;;;;;;5055279;28;20515;-75
2023/10/16 16:39:23;;;;;;;9.32;4.30;;;;;;;;;;5056817;28;20071;-76
2023/10/16 16:41:48;;;;;;;7.75;3.90;;;;;;;;;;5054433;28;20048;-76